SYZ weather

Shiraz Shahid Dastghaib International Airport
Shiraz, Fars Province, Iran

Public forecast

Using degrees Celsius for public forecast. Weather courtesy of forecast.io.

METAR (pilot weather report)

Retrieved 2019/06/25 16:30 UTC (26 minutes ago):

OISS 251630Z 30006KT CAVOK 35/03 Q1014 A2995

TAF (pilot weather forecast)

Retrieved 2019/06/25 12:39 UTC (4 hours ago):

TAF OISS 251130Z 2512/2618 24008KT 7000 FEW040 SCT100